»·PEaware :: N402KC KIRK-KVGT

N402KC :: KIRK-KVGT

FLIGHT INFORMATION

Flight Status: Arrived
Operator: Privately registered:
United States
More flights under this callsign
Pilot: Brett L. (10300)
Aircraft: PIPER PA-32 SARATOGA
(PA32)
More flights by this aircraft type
Origin: KIRK Kirksville Regl
United States
Destination: KVGT North Las Vegas
United States
More flights between these airports :: More routes between these airports
Route: +MOVIA PMD V12 BASAL V394 LAS
File this flight plan on PilotEdge
Remarks:
Altitude:
(Current/Filed)
11,000ft
Speed:
(Current/Filed)
180kts
Departed: 08-Sep-17 10:02 PM
Arrived: 08-Sep-17 11:39 PM
Distance/Time
Traveled:
1090nm/1:37
Distance/Time
To Go:
Arrived

Flight Plot

Page will automatically refresh every two minutes.


Map Options




Map Legend


Flown Route
Filed Route
Departure Airport
Arrival Airport
Navaid (VOR, NDB)
Fix

Horizontal Profiles

Position Reports

Time Latitude Longitude Heading Altitude Ground
Speed
08-Sep-17 21:46 35.656137 -117.824665 29 2461ft 0kts
08-Sep-17 21:47 35.656137 -117.824665 29 2461ft 0kts
08-Sep-17 21:48 35.656137 -117.824665 29 2461ft 0kts
08-Sep-17 21:49 35.656137 -117.824665 29 2461ft 0kts
08-Sep-17 21:50 35.656138 -117.824665 29 2461ft 0kts
08-Sep-17 21:51 35.656138 -117.824664 29 2461ft 0kts
08-Sep-17 21:52 35.656138 -117.824664 29 2461ft 0kts
08-Sep-17 21:53 35.656139 -117.824664 29 2461ft 0kts
08-Sep-17 21:54 35.656139 -117.824664 29 2461ft 0kts
08-Sep-17 21:55 35.656139 -117.824664 29 2461ft 0kts
08-Sep-17 21:56 35.656139 -117.824663 29 2461ft 0kts
08-Sep-17 21:57 35.656140 -117.824663 29 2461ft 0kts
08-Sep-17 21:58 35.656140 -117.824663 29 2461ft 0kts
08-Sep-17 21:59 35.656140 -117.824663 29 2461ft 0kts
08-Sep-17 22:00 35.657318 -117.824698 30 2461ft 19kts
08-Sep-17 22:01 35.660420 -117.822426 29 2461ft 9kts
08-Sep-17 22:02 35.661903 -117.822144 342 2461ft 0kts
08-Sep-17 22:03 35.661906 -117.822145 341 2461ft 0kts
08-Sep-17 22:04 35.662818 -117.822523 342 2461ft 7kts
08-Sep-17 22:05 35.662880 -117.822668 211 2461ft 0kts
08-Sep-17 22:06 35.656733 -117.827194 209 2491ft 95kts
08-Sep-17 22:07 35.630793 -117.850864 219 3479ft 114kts
08-Sep-17 22:08 35.606522 -117.875052 218 4662ft 109kts
08-Sep-17 22:09 35.582103 -117.892716 162 5832ft 102kts
08-Sep-17 22:10 35.556879 -117.880512 158 7118ft 102kts
08-Sep-17 22:11 35.533178 -117.855979 124 8245ft 123kts
08-Sep-17 22:12 35.514464 -117.820042 125 9260ft 124kts
08-Sep-17 22:13 35.495251 -117.781537 125 10263ft 132kts
08-Sep-17 22:14 35.468008 -117.762496 186 11025ft 142kts
08-Sep-17 22:15 35.426460 -117.770445 180 11452ft 147kts
08-Sep-17 22:16 35.397818 -117.732554 128 11509ft 168kts
08-Sep-17 22:17 35.372129 -117.684469 128 11503ft 165kts
08-Sep-17 22:18 35.346890 -117.636986 127 11514ft 172kts
08-Sep-17 22:19 35.315019 -117.647961 260 11525ft 186kts
08-Sep-17 22:20 35.318388 -117.712311 268 11440ft 196kts
08-Sep-17 22:21 35.318555 -117.778734 251 11009ft 185kts
08-Sep-17 22:22 35.306253 -117.838049 249 11007ft 177kts
08-Sep-17 22:23 35.293904 -117.896627 249 11017ft 182kts
08-Sep-17 22:24 35.281354 -117.956237 249 11013ft 176kts
08-Sep-17 22:25 35.269220 -118.013758 249 11016ft 174kts
08-Sep-17 22:26 35.256962 -118.071665 249 11024ft 182kts
08-Sep-17 22:27 35.239407 -118.127096 223 11021ft 169kts
08-Sep-17 22:28 35.201410 -118.159980 206 11046ft 166kts
08-Sep-17 22:29 35.161085 -118.188622 206 11052ft 172kts
08-Sep-17 22:30 35.119975 -118.218025 206 11045ft 172kts
08-Sep-17 22:31 35.077711 -118.248216 206 11052ft 181kts
08-Sep-17 22:32 35.034702 -118.278957 206 11057ft 175kts
08-Sep-17 22:33 34.990712 -118.295254 160 11068ft 173kts
08-Sep-17 22:34 34.947947 -118.266736 153 11061ft 179kts
08-Sep-17 22:35 34.904554 -118.238644 154 11049ft 171kts
08-Sep-17 22:36 34.862644 -118.211717 154 11039ft 170kts
08-Sep-17 22:37 34.820267 -118.184544 154 11033ft 178kts
08-Sep-17 22:38 34.776904 -118.156737 154 11022ft 171kts
08-Sep-17 22:39 34.734817 -118.129812 154 11022ft 172kts
08-Sep-17 22:40 34.692366 -118.102672 154 11023ft 171kts
08-Sep-17 22:41 34.650182 -118.075741 154 11029ft 173kts
08-Sep-17 22:42 34.635279 -118.024103 82 11032ft 191kts
08-Sep-17 22:43 34.642992 -117.960436 88 11028ft 193kts
08-Sep-17 22:44 34.649765 -117.896591 87 11021ft 187kts
08-Sep-17 22:45 34.656468 -117.834472 87 11020ft 185kts
08-Sep-17 22:46 34.663154 -117.772496 87 11020ft 184kts
08-Sep-17 22:47 34.669770 -117.710923 87 11022ft 184kts
08-Sep-17 22:48 34.676355 -117.649360 87 11028ft 184kts
08-Sep-17 22:49 34.682906 -117.587728 87 11034ft 183kts
08-Sep-17 22:50 34.689520 -117.524917 87 11047ft 197kts
08-Sep-17 22:51 34.696477 -117.459153 87 11011ft 194kts
08-Sep-17 22:52 34.703272 -117.394595 87 11011ft 190kts
08-Sep-17 22:53 34.709956 -117.330302 87 11014ft 197kts
08-Sep-17 22:54 34.716790 -117.264777 87 11008ft 191kts
08-Sep-17 22:55 34.723371 -117.200973 87 11023ft 190kts
08-Sep-17 22:56 34.729925 -117.137178 87 11021ft 190kts
08-Sep-17 22:57 34.736476 -117.073110 87 11016ft 190kts
08-Sep-17 22:58 34.742959 -117.009191 87 11005ft 190kts
08-Sep-17 22:59 34.749421 -116.945126 87 10991ft 192kts
08-Sep-17 23:00 34.755904 -116.880420 87 10976ft 193kts
08-Sep-17 23:01 34.784468 -116.825492 50 10961ft 200kts
08-Sep-17 23:02 34.821177 -116.774341 52 10953ft 200kts
08-Sep-17 23:03 34.857801 -116.723438 52 10952ft 200kts
08-Sep-17 23:04 34.894887 -116.671949 52 10957ft 208kts
08-Sep-17 23:05 34.932799 -116.619300 52 10961ft 208kts
08-Sep-17 23:06 34.970580 -116.567056 50 10965ft 206kts
08-Sep-17 23:07 35.010519 -116.517986 48 10969ft 203kts
08-Sep-17 23:08 35.049967 -116.469117 49 10972ft 200kts
08-Sep-17 23:09 35.089110 -116.420277 49 10978ft 205kts
08-Sep-17 23:10 35.128947 -116.370503 49 10981ft 209kts
08-Sep-17 23:11 35.169238 -116.320073 49 10982ft 209kts
08-Sep-17 23:12 35.209390 -116.269766 49 10983ft 209kts
08-Sep-17 23:13 35.249449 -116.219488 49 10981ft 204kts
08-Sep-17 23:14 35.288720 -116.170113 49 10982ft 201kts
08-Sep-17 23:15 35.327563 -116.121200 49 10980ft 200kts
08-Sep-17 23:16 35.366834 -116.071653 49 10984ft 208kts
08-Sep-17 23:17 35.406446 -116.021670 49 10983ft 201kts
08-Sep-17 23:18 35.445183 -115.972674 49 10986ft 200kts
08-Sep-17 23:19 35.483961 -115.923557 49 10987ft 200kts
08-Sep-17 23:20 35.522585 -115.874564 49 10988ft 200kts
08-Sep-17 23:21 35.561176 -115.825545 49 10989ft 200kts
08-Sep-17 23:22 35.600156 -115.775932 49 10993ft 206kts
08-Sep-17 23:23 35.639335 -115.726043 49 10991ft 200kts
08-Sep-17 23:24 35.678046 -115.676642 49 10993ft 200kts
08-Sep-17 23:25 35.716572 -115.627407 49 10993ft 200kts
08-Sep-17 23:26 35.755071 -115.578135 50 10994ft 200kts
08-Sep-17 23:27 35.793579 -115.528782 50 11019ft 201kts
08-Sep-17 23:28 35.832140 -115.479299 50 10992ft 199kts
08-Sep-17 23:29 35.870258 -115.430292 50 10998ft 199kts
08-Sep-17 23:30 35.908771 -115.380706 50 10999ft 199kts
08-Sep-17 23:31 35.947158 -115.331209 50 10999ft 200kts
08-Sep-17 23:32 35.985167 -115.282131 50 11010ft 197kts
08-Sep-17 23:33 36.024427 -115.231331 49 10506ft 207kts
08-Sep-17 23:34 36.064410 -115.179557 48 9812ft 208kts
08-Sep-17 23:35 36.117818 -115.169710 346 9120ft 209kts
08-Sep-17 23:36 36.174835 -115.184988 348 8418ft 208kts
08-Sep-17 23:37 36.225451 -115.198396 348 8046ft 138kts
08-Sep-17 23:38 36.261175 -115.214671 329 6789ft 142kts
08-Sep-17 23:39 36.273920 -115.244979 194 5933ft 108kts
08-Sep-17 23:40 36.241038 -115.249082 184 4720ft 125kts
08-Sep-17 23:41 36.216452 -115.232317 92 3654ft 115kts
08-Sep-17 23:42 36.213094 -115.197440 149 2382ft 106kts
08-Sep-17 23:43 36.205282 -115.187230 133 2209ft 0kts
08-Sep-17 23:44 36.205282 -115.187229 133 2209ft 0kts
08-Sep-17 23:45 36.205282 -115.187229 133 2209ft 0kts

Navigation Log

Ident Type
Flight plan parsing failed, navigation log unavailable